createdAt,value
2022-11-23T00:02:23.591Z,8.40
2022-11-23T00:04:50.261Z,8.40
2022-11-23T00:07:17.083Z,8.40
2022-11-23T00:09:43.781Z,8.40
2022-11-23T00:12:10.518Z,8.40
2022-11-23T00:14:37.285Z,8.40
2022-11-23T00:17:04.338Z,8.50
2022-11-23T00:19:31.238Z,8.50
2022-11-23T00:21:58.310Z,8.40
2022-11-23T00:24:25.037Z,8.40
2022-11-23T00:26:51.699Z,8.40
2022-11-23T00:29:18.349Z,8.40
2022-11-23T00:31:45.018Z,8.50
2022-11-23T00:34:11.662Z,8.50
2022-11-23T00:36:38.336Z,8.50
2022-11-23T00:39:04.993Z,8.50
2022-11-23T00:41:31.665Z,8.50
2022-11-23T00:43:58.499Z,8.50
2022-11-23T00:46:27.779Z,8.50
2022-11-23T00:48:56.391Z,8.60
2022-11-23T00:51:27.966Z,8.60
2022-11-23T00:53:55.085Z,8.50
2022-11-23T00:56:21.840Z,8.50
2022-11-23T00:58:59.149Z,8.50
2022-11-23T01:01:29.139Z,8.50
2022-11-23T01:03:58.253Z,8.50
2022-11-23T01:06:30.269Z,8.50
2022-11-23T01:09:02.352Z,8.50
2022-11-23T01:11:30.985Z,8.60
2022-11-23T01:13:58.269Z,8.60
2022-11-23T01:16:30.606Z,8.60
2022-11-23T01:18:59.851Z,8.60
2022-11-23T01:21:28.058Z,8.60
2022-11-23T01:23:55.223Z,8.60
2022-11-23T01:26:22.162Z,8.60
2022-11-23T01:28:49.483Z,8.60
2022-11-23T01:31:21.462Z,8.70
2022-11-23T01:33:52.661Z,8.70
2022-11-23T01:36:22.166Z,8.70
2022-11-23T01:38:49.222Z,8.70
2022-11-23T01:41:18.776Z,8.70
2022-11-23T01:43:45.849Z,8.80
2022-11-23T01:46:13.029Z,8.80
2022-11-23T01:49:00.753Z,8.80
2022-11-23T01:51:35.572Z,8.80
2022-11-23T01:54:08.637Z,8.80
2022-11-23T01:56:44.142Z,8.90
2022-11-23T01:59:16.381Z,8.90
2022-11-23T02:01:43.951Z,8.90
2022-11-23T02:04:16.587Z,8.90
2022-11-23T02:06:46.368Z,8.90
2022-11-23T02:09:14.354Z,8.80
2022-11-23T02:11:41.113Z,8.90
2022-11-23T02:14:08.816Z,8.90
2022-11-23T02:16:37.770Z,9.00
2022-11-23T02:19:11.298Z,9.00
2022-11-23T02:21:39.153Z,8.90
2022-11-23T02:24:23.836Z,8.90
2022-11-23T02:26:50.839Z,8.90
2022-11-23T02:29:22.243Z,8.90
2022-11-23T02:31:49.020Z,8.90
2022-11-23T02:34:17.222Z,8.90
2022-11-23T02:36:48.170Z,8.90
2022-11-23T02:39:41.888Z,8.90
2022-11-23T02:42:08.520Z,8.90
2022-11-23T02:45:00.088Z,8.90
2022-11-23T02:47:26.755Z,9.00
2022-11-23T02:49:53.407Z,9.00
2022-11-23T02:52:20.068Z,9.00
2022-11-23T02:54:47.155Z,9.00
2022-11-23T02:57:13.841Z,9.00
2022-11-23T02:59:40.504Z,8.90
2022-11-23T03:02:07.171Z,9.00
2022-11-23T03:04:33.830Z,8.90
2022-11-23T03:07:00.528Z,8.90
2022-11-23T03:09:28.175Z,9.00
2022-11-23T03:11:55.004Z,9.00
2022-11-23T03:14:22.026Z,9.00
2022-11-23T03:16:48.680Z,9.00
2022-11-23T03:19:15.536Z,9.10
2022-11-23T03:21:42.321Z,9.10
2022-11-23T03:24:08.942Z,9.10
2022-11-23T03:26:35.786Z,9.20
2022-11-23T03:29:02.427Z,9.20
2022-11-23T03:31:29.211Z,9.20
2022-11-23T03:33:55.955Z,9.20
2022-11-23T03:36:22.667Z,9.20
2022-11-23T03:38:49.414Z,9.20
2022-11-23T03:41:16.041Z,9.20
2022-11-23T03:43:42.647Z,9.20
2022-11-23T03:46:09.317Z,9.10
2022-11-23T03:48:35.902Z,9.10
2022-11-23T03:51:02.575Z,9.10
2022-11-23T03:53:29.386Z,9.10
2022-11-23T03:55:57.507Z,9.20
2022-11-23T03:58:24.431Z,9.20
2022-11-23T04:00:51.154Z,9.20
2022-11-23T04:03:17.840Z,9.10
2022-11-23T04:05:44.616Z,9.10
2022-11-23T04:08:11.306Z,9.20
2022-11-23T04:10:37.902Z,9.10
2022-11-23T04:13:05.092Z,9.10
2022-11-23T04:15:31.786Z,9.10
2022-11-23T04:17:58.575Z,9.10
2022-11-23T04:20:25.454Z,9.10
2022-11-23T04:22:52.116Z,9.10
2022-11-23T04:25:18.848Z,9.10
2022-11-23T04:27:46.175Z,9.10
2022-11-23T04:30:13.143Z,9.10
2022-11-23T04:32:39.888Z,9.10
2022-11-23T04:35:06.738Z,9.10
2022-11-23T04:37:33.495Z,9.20
2022-11-23T04:40:00.157Z,9.20
2022-11-23T04:42:26.756Z,9.20
2022-11-23T04:44:53.481Z,9.10
2022-11-23T04:47:20.085Z,9.10
2022-11-23T04:49:46.710Z,9.00
2022-11-23T04:52:13.489Z,9.00
2022-11-23T04:54:40.095Z,9.10
2022-11-23T04:57:06.710Z,9.00
2022-11-23T04:59:33.662Z,9.00
2022-11-23T05:02:00.515Z,9.00
2022-11-23T05:04:27.198Z,9.00
2022-11-23T05:06:53.897Z,9.00
2022-11-23T05:09:20.555Z,9.00
2022-11-23T05:11:47.430Z,8.90
2022-11-23T05:14:14.200Z,8.90
2022-11-23T05:16:41.494Z,8.90
2022-11-23T05:19:08.462Z,9.00
2022-11-23T05:21:35.195Z,8.90
2022-11-23T05:24:01.819Z,9.00
2022-11-23T05:26:28.493Z,9.00
2022-11-23T05:28:55.092Z,9.00
2022-11-23T05:31:21.765Z,9.00
2022-11-23T05:33:48.373Z,9.00
2022-11-23T05:36:15.080Z,9.00
2022-11-23T05:38:42.182Z,9.00
2022-11-23T05:41:08.882Z,9.00
2022-11-23T05:43:35.618Z,9.00
2022-11-23T05:46:02.885Z,9.00
2022-11-23T05:48:29.460Z,9.00
2022-11-23T05:50:58.638Z,9.00
2022-11-23T05:53:29.121Z,9.10
2022-11-23T05:56:02.088Z,9.10
2022-11-23T05:58:29.495Z,9.00
2022-11-23T06:01:00.303Z,9.00
2022-11-23T06:03:27.047Z,9.00
2022-11-23T06:05:53.691Z,9.00
2022-11-23T06:08:20.507Z,9.00
2022-11-23T06:10:47.245Z,9.10
2022-11-23T06:13:13.965Z,9.00
2022-11-23T06:15:40.566Z,9.20
2022-11-23T06:18:07.193Z,9.10
2022-11-23T06:20:36.701Z,9.10
2022-11-23T06:23:03.494Z,9.10
2022-11-23T06:25:30.223Z,9.10
2022-11-23T06:27:59.132Z,9.10
2022-11-23T06:30:26.879Z,9.10
2022-11-23T06:32:53.723Z,9.00
2022-11-23T06:35:20.397Z,9.00
2022-11-23T06:37:51.325Z,8.90
2022-11-23T06:40:18.361Z,9.00
2022-11-23T06:42:45.265Z,9.00
2022-11-23T06:45:12.658Z,9.00
2022-11-23T06:47:39.453Z,8.90
2022-11-23T06:50:07.116Z,8.90
2022-11-23T06:52:33.830Z,8.90
2022-11-23T06:55:00.713Z,8.90
2022-11-23T06:57:27.382Z,8.80
2022-11-23T06:59:54.292Z,8.90
2022-11-23T07:02:21.008Z,8.80
2022-11-23T07:04:47.836Z,8.80
2022-11-23T07:07:14.582Z,8.80
2022-11-23T07:09:41.260Z,8.80
2022-11-23T07:12:08.083Z,8.80
2022-11-23T07:14:35.061Z,8.80
2022-11-23T07:17:01.957Z,8.80
2022-11-23T07:19:28.559Z,8.70
2022-11-23T07:21:55.184Z,8.70
2022-11-23T07:24:21.887Z,8.80
2022-11-23T07:26:48.492Z,8.80
2022-11-23T07:29:15.130Z,8.80
2022-11-23T07:31:41.739Z,8.80
2022-11-23T07:34:11.000Z,8.80
2022-11-23T07:36:37.940Z,8.80
2022-11-23T07:39:04.660Z,8.80
2022-11-23T07:41:31.308Z,8.80
2022-11-23T07:43:57.958Z,8.80
2022-11-23T07:46:24.990Z,8.80
2022-11-23T07:48:51.792Z,8.80
2022-11-23T07:51:20.080Z,8.90
2022-11-23T07:53:47.290Z,8.90
2022-11-23T07:56:13.932Z,8.90
2022-11-23T07:58:40.894Z,8.90
2022-11-23T08:01:07.568Z,8.90
2022-11-23T08:03:34.839Z,8.90
2022-11-23T08:06:01.531Z,9.00
2022-11-23T08:08:28.394Z,9.00
2022-11-23T08:10:55.175Z,9.10
2022-11-23T08:13:22.825Z,9.10
2022-11-23T08:15:54.924Z,9.10
2022-11-23T08:18:25.868Z,9.00
2022-11-23T08:20:53.493Z,9.10
2022-11-23T08:23:20.451Z,9.10
2022-11-23T08:25:47.452Z,9.20
2022-11-23T08:28:14.249Z,9.20
2022-11-23T08:30:40.909Z,9.30
2022-11-23T08:33:08.924Z,9.40
2022-11-23T08:35:40.173Z,9.40
2022-11-23T08:38:08.326Z,9.40
2022-11-23T08:40:36.680Z,9.50
2022-11-23T08:43:04.058Z,9.50
2022-11-23T08:45:31.102Z,9.50
2022-11-23T08:48:01.847Z,9.50
2022-11-23T08:50:29.336Z,9.60
2022-11-23T08:53:00.363Z,9.60
2022-11-23T08:55:27.712Z,9.60
2022-11-23T08:57:59.355Z,9.70
2022-11-23T09:00:27.158Z,9.70
2022-11-23T09:02:54.623Z,9.80
2022-11-23T09:05:21.776Z,9.80
2022-11-23T09:07:48.534Z,9.90
2022-11-23T09:10:18.808Z,9.90
2022-11-23T09:12:46.928Z,9.80
2022-11-23T09:15:14.080Z,9.80
2022-11-23T09:17:40.870Z,9.80
2022-11-23T09:20:08.276Z,9.90
2022-11-23T09:22:34.874Z,9.90
2022-11-23T09:25:01.816Z,10.00
2022-11-23T09:27:28.782Z,10.10
2022-11-23T09:29:55.385Z,10.10
2022-11-23T09:32:22.177Z,10.10
2022-11-23T09:34:48.780Z,10.10
2022-11-23T09:37:15.668Z,10.20
2022-11-23T09:39:42.412Z,10.30
2022-11-23T09:42:29.299Z,10.30
2022-11-23T09:45:10.636Z,10.40
2022-11-23T09:47:54.479Z,10.50
2022-11-23T09:50:48.085Z,10.40
2022-11-23T09:53:26.821Z,10.50
2022-11-23T09:55:57.577Z,10.50
2022-11-23T09:58:30.128Z,10.60
2022-11-23T10:01:03.038Z,10.60
2022-11-23T10:03:42.651Z,10.60
2022-11-23T10:06:22.892Z,10.70
2022-11-23T10:09:11.534Z,10.70
2022-11-23T10:12:05.351Z,10.70
2022-11-23T10:14:44.442Z,10.80
2022-11-23T10:17:19.630Z,10.90
2022-11-23T10:20:02.700Z,10.90
2022-11-23T10:22:48.045Z,11.00
2022-11-23T10:25:17.789Z,11.10
2022-11-23T10:27:48.921Z,11.10
2022-11-23T10:30:18.081Z,11.10
2022-11-23T10:33:02.602Z,11.20
2022-11-23T10:35:35.190Z,11.20
2022-11-23T10:38:18.489Z,11.20
2022-11-23T10:41:04.273Z,11.30
2022-11-23T10:43:47.834Z,11.30
2022-11-23T10:46:25.971Z,11.40
2022-11-23T10:48:54.036Z,11.40
2022-11-23T10:51:27.905Z,11.20
2022-11-23T10:54:02.080Z,11.40
2022-11-23T10:56:32.756Z,11.40
2022-11-23T10:58:59.494Z,11.30
2022-11-23T11:01:29.485Z,11.30
2022-11-23T11:04:03.448Z,11.40
2022-11-23T11:06:33.603Z,11.30
2022-11-23T11:09:09.518Z,11.30
2022-11-23T11:11:45.310Z,11.30
2022-11-23T11:14:16.768Z,11.30
2022-11-23T11:16:54.537Z,11.40
2022-11-23T11:19:31.887Z,11.40
2022-11-23T11:22:00.466Z,11.50
2022-11-23T11:24:37.940Z,11.50
2022-11-23T11:27:17.632Z,11.50
2022-11-23T11:29:44.232Z,11.60
2022-11-23T11:32:13.709Z,11.50
2022-11-23T11:34:52.051Z,11.60
2022-11-23T11:37:39.194Z,11.60
2022-11-23T11:40:27.933Z,11.60
2022-11-23T11:43:03.044Z,11.60
2022-11-23T11:45:34.211Z,11.60
2022-11-23T11:48:20.019Z,11.70
2022-11-23T11:51:07.726Z,11.60
2022-11-23T11:53:59.179Z,11.80
2022-11-23T11:56:46.316Z,11.90
2022-11-23T11:59:24.750Z,12.10
2022-11-23T12:01:55.679Z,12.20
2022-11-23T12:04:31.941Z,12.10
2022-11-23T12:07:28.646Z,12.10
2022-11-23T12:10:03.486Z,12.00
2022-11-23T12:12:31.848Z,11.90
2022-11-23T12:14:58.647Z,11.80
2022-11-23T12:17:44.302Z,11.70
2022-11-23T12:20:23.904Z,11.80
2022-11-23T12:23:05.005Z,11.90
2022-11-23T12:25:43.833Z,11.70
2022-11-23T12:28:28.347Z,11.60
2022-11-23T12:31:12.889Z,11.50
2022-11-23T12:34:03.915Z,11.60
2022-11-23T12:36:42.994Z,11.70
2022-11-23T12:39:28.592Z,11.60
2022-11-23T12:42:11.917Z,11.70
2022-11-23T12:45:06.424Z,11.70
2022-11-23T12:48:08.221Z,11.70
2022-11-23T12:50:55.286Z,11.60
2022-11-23T12:53:43.995Z,11.60
2022-11-23T12:56:48.455Z,11.60
2022-11-23T12:59:16.370Z,11.70
2022-11-23T13:01:48.480Z,11.70
2022-11-23T13:04:52.293Z,11.60
2022-11-23T13:07:31.649Z,11.60
2022-11-23T13:10:06.996Z,11.60
2022-11-23T13:13:14.104Z,11.60
2022-11-23T13:16:17.080Z,11.60
2022-11-23T13:19:04.904Z,11.60
2022-11-23T13:21:44.845Z,11.60
2022-11-23T13:24:25.996Z,11.60
2022-11-23T13:27:15.323Z,11.50
2022-11-23T13:29:50.965Z,11.40
2022-11-23T13:32:39.504Z,11.30
2022-11-23T13:35:21.591Z,11.30
2022-11-23T13:37:57.365Z,11.20
2022-11-23T13:40:35.209Z,11.20
2022-11-23T13:43:13.198Z,11.10
2022-11-23T13:45:40.180Z,11.20
2022-11-23T13:48:11.481Z,11.10
2022-11-23T13:50:48.860Z,11.10
2022-11-23T13:53:40.499Z,11.00
2022-11-23T13:56:39.221Z,11.00
2022-11-23T13:59:23.855Z,10.90
2022-11-23T14:02:09.007Z,10.90
2022-11-23T14:04:44.013Z,10.80
2022-11-23T14:07:37.367Z,10.80
2022-11-23T14:10:24.360Z,10.80
2022-11-23T14:13:05.601Z,10.70
2022-11-23T14:15:36.140Z,10.60
2022-11-23T14:18:18.583Z,10.60
2022-11-23T14:21:07.185Z,10.60
2022-11-23T14:24:15.904Z,10.50
2022-11-23T14:27:46.329Z,10.50
2022-11-23T14:30:32.921Z,10.40
2022-11-23T14:33:22.573Z,10.40
2022-11-23T14:36:01.523Z,10.30
2022-11-23T14:39:00.550Z,10.30
2022-11-23T14:41:32.084Z,10.30
2022-11-23T14:44:01.187Z,10.30
2022-11-23T14:46:27.933Z,10.30
2022-11-23T14:49:17.335Z,10.30
2022-11-23T14:51:45.123Z,10.40
2022-11-23T14:54:13.983Z,10.40
2022-11-23T14:56:51.851Z,10.40
2022-11-23T14:59:29.650Z,10.30
2022-11-23T15:02:02.672Z,10.40
2022-11-23T15:04:37.240Z,10.40
2022-11-23T15:07:11.162Z,10.40
2022-11-23T15:09:52.171Z,10.40
2022-11-23T15:12:27.845Z,10.40
2022-11-23T15:14:59.831Z,10.50
2022-11-23T15:17:27.527Z,10.50
2022-11-23T15:20:02.271Z,10.50
2022-11-23T15:22:31.542Z,10.50
2022-11-23T15:25:09.585Z,10.40
2022-11-23T15:27:41.264Z,10.40
2022-11-23T15:30:28.785Z,10.40
2022-11-23T15:33:05.637Z,10.40
2022-11-23T15:35:35.442Z,10.30
2022-11-23T15:38:04.675Z,10.30
2022-11-23T15:40:36.707Z,10.30
2022-11-23T15:43:03.839Z,10.30
2022-11-23T15:45:35.335Z,10.20
2022-11-23T15:48:27.934Z,10.00
2022-11-23T15:51:00.438Z,9.90
2022-11-23T15:53:49.357Z,9.90
2022-11-23T15:56:28.400Z,9.70
2022-11-23T15:58:56.918Z,9.70
2022-11-23T16:01:23.963Z,9.60
2022-11-23T16:03:55.396Z,9.50
2022-11-23T16:06:40.085Z,9.50
2022-11-23T16:09:54.345Z,9.30
2022-11-23T16:12:29.337Z,9.20
2022-11-23T16:14:58.713Z,9.20
2022-11-23T16:17:34.209Z,9.10
2022-11-23T16:20:05.196Z,9.00
2022-11-23T16:22:39.885Z,8.90
2022-11-23T16:25:26.124Z,8.90
2022-11-23T16:28:03.754Z,8.90
2022-11-23T16:30:51.441Z,8.90
2022-11-23T16:33:24.771Z,8.80
2022-11-23T16:36:01.001Z,8.80
2022-11-23T16:38:34.114Z,8.70
2022-11-23T16:41:06.424Z,8.70
2022-11-23T16:43:34.744Z,8.70
2022-11-23T16:46:02.565Z,8.70
2022-11-23T16:48:39.853Z,8.70
2022-11-23T16:51:11.909Z,8.60
2022-11-23T16:54:11.888Z,8.60
2022-11-23T16:56:29.988Z,8.60
2022-11-23T16:58:57.759Z,8.50
2022-11-23T17:01:33.022Z,8.50
2022-11-23T17:04:05.384Z,8.60
2022-11-23T17:06:33.758Z,8.50
2022-11-23T17:09:08.168Z,8.50
2022-11-23T17:11:39.140Z,8.60
2022-11-23T17:14:07.747Z,8.50
2022-11-23T17:16:37.951Z,8.60
2022-11-23T17:19:18.682Z,8.50
2022-11-23T17:21:46.600Z,8.60
2022-11-23T17:24:16.028Z,8.60
2022-11-23T17:26:51.523Z,8.50
2022-11-23T17:29:20.449Z,8.50
2022-11-23T17:31:49.066Z,8.50
2022-11-23T17:34:16.896Z,8.50
2022-11-23T17:36:47.702Z,8.50
2022-11-23T17:39:23.045Z,8.40
2022-11-23T17:41:50.402Z,8.40
2022-11-23T17:44:19.728Z,8.40
2022-11-23T17:46:47.705Z,8.40
2022-11-23T17:49:18.043Z,8.40
2022-11-23T17:51:45.703Z,8.40
2022-11-23T17:54:13.150Z,8.40
2022-11-23T17:56:40.353Z,8.40
2022-11-23T17:59:07.168Z,8.40
2022-11-23T18:01:34.337Z,8.40
2022-11-23T18:04:01.517Z,8.40
2022-11-23T18:06:29.537Z,8.40
2022-11-23T18:09:00.821Z,8.40
2022-11-23T18:11:28.639Z,8.30
2022-11-23T18:13:55.645Z,8.30
2022-11-23T18:16:23.971Z,8.30
2022-11-23T18:18:51.598Z,8.30
2022-11-23T18:21:19.035Z,8.40
2022-11-23T18:23:46.900Z,8.40
2022-11-23T18:26:22.036Z,8.30
2022-11-23T18:28:50.803Z,8.30
2022-11-23T18:31:18.340Z,8.30
2022-11-23T18:33:45.641Z,8.30
2022-11-23T18:36:13.848Z,8.30
2022-11-23T18:38:41.488Z,8.20
2022-11-23T18:41:08.837Z,8.30
2022-11-23T18:43:36.200Z,8.30
2022-11-23T18:46:07.676Z,8.30
2022-11-23T18:48:34.902Z,8.30
2022-11-23T18:51:03.016Z,8.30
2022-11-23T18:53:30.503Z,8.30
2022-11-23T18:56:03.757Z,8.40
2022-11-23T18:58:35.461Z,8.40
2022-11-23T19:01:12.140Z,8.40
2022-11-23T19:03:44.270Z,8.40
2022-11-23T19:06:13.737Z,8.40
2022-11-23T19:08:52.594Z,8.30
2022-11-23T19:11:22.042Z,8.30
2022-11-23T19:13:53.966Z,8.30
2022-11-23T19:16:24.516Z,8.30
2022-11-23T19:19:12.807Z,8.30
2022-11-23T19:21:39.663Z,8.30
2022-11-23T19:24:08.933Z,8.30
2022-11-23T19:26:36.846Z,8.30
2022-11-23T19:29:04.523Z,8.30
2022-11-23T19:31:33.075Z,8.30
2022-11-23T19:34:05.900Z,8.30
2022-11-23T19:36:36.156Z,8.30
2022-11-23T19:39:05.262Z,8.20
2022-11-23T19:41:32.328Z,8.30
2022-11-23T19:44:00.397Z,8.20
2022-11-23T19:46:28.371Z,8.30
2022-11-23T19:48:57.117Z,8.20
2022-11-23T19:51:24.293Z,8.20
2022-11-23T19:53:51.379Z,8.10
2022-11-23T19:56:20.743Z,8.10
2022-11-23T19:58:51.763Z,8.10
2022-11-23T20:01:21.626Z,8.00
2022-11-23T20:03:50.822Z,8.00
2022-11-23T20:06:28.345Z,8.10
2022-11-23T20:08:56.690Z,8.20
2022-11-23T20:11:23.868Z,8.20
2022-11-23T20:13:50.975Z,8.10
2022-11-23T20:16:19.473Z,8.10
2022-11-23T20:18:49.029Z,8.00
2022-11-23T20:21:17.893Z,8.00
2022-11-23T20:23:46.282Z,8.00
2022-11-23T20:26:15.336Z,8.00
2022-11-23T20:28:42.990Z,7.90
2022-11-23T20:31:20.046Z,7.90
2022-11-23T20:33:50.436Z,7.80
2022-11-23T20:36:21.313Z,7.80
2022-11-23T20:38:49.055Z,7.80
2022-11-23T20:41:21.885Z,7.70
2022-11-23T20:43:51.723Z,7.60
2022-11-23T20:46:38.170Z,7.60
2022-11-23T20:49:05.458Z,7.60
2022-11-23T20:51:32.379Z,7.60
2022-11-23T20:53:59.211Z,7.60
2022-11-23T20:56:27.481Z,7.60
2022-11-23T20:58:55.986Z,7.50
2022-11-23T21:01:22.863Z,7.50
2022-11-23T21:03:55.696Z,7.50
2022-11-23T21:06:23.334Z,7.50
2022-11-23T21:08:51.120Z,7.50
2022-11-23T21:11:42.899Z,7.40
2022-11-23T21:14:21.255Z,7.40
2022-11-23T21:16:53.527Z,7.40
2022-11-23T21:19:22.776Z,7.40
2022-11-23T21:21:50.136Z,7.40
2022-11-23T21:24:17.830Z,7.30
2022-11-23T21:26:45.451Z,7.30
2022-11-23T21:29:12.489Z,7.30
2022-11-23T21:31:41.206Z,7.30
2022-11-23T21:34:10.497Z,7.30
2022-11-23T21:36:41.590Z,7.30
2022-11-23T21:39:10.314Z,7.30
2022-11-23T21:41:38.413Z,7.30
2022-11-23T21:44:06.463Z,7.40
2022-11-23T21:46:34.146Z,7.40
2022-11-23T21:49:01.359Z,7.40
2022-11-23T21:51:30.342Z,7.40
2022-11-23T21:53:59.177Z,7.40
2022-11-23T21:56:27.217Z,7.40
2022-11-23T21:58:54.510Z,7.40
2022-11-23T22:01:24.835Z,7.50
2022-11-23T22:04:03.825Z,7.40
2022-11-23T22:06:31.273Z,7.50
2022-11-23T22:08:59.885Z,7.50
2022-11-23T22:11:29.140Z,7.50
2022-11-23T22:14:00.182Z,7.50
2022-11-23T22:16:33.303Z,7.50
2022-11-23T22:19:00.657Z,7.60
2022-11-23T22:21:32.416Z,7.60
2022-11-23T22:23:59.917Z,7.60
2022-11-23T22:26:27.845Z,7.50
2022-11-23T22:28:55.811Z,7.60
2022-11-23T22:31:24.913Z,7.50
2022-11-23T22:33:54.739Z,7.60
2022-11-23T22:36:23.530Z,7.60
2022-11-23T22:39:01.760Z,7.60
2022-11-23T22:41:30.053Z,7.50
2022-11-23T22:43:56.954Z,7.50
2022-11-23T22:46:26.223Z,7.40
2022-11-23T22:48:53.608Z,7.40
2022-11-23T22:51:23.866Z,7.30
2022-11-23T22:53:58.802Z,7.30
2022-11-23T22:56:26.555Z,7.30
2022-11-23T22:58:53.544Z,7.30
2022-11-23T23:01:23.202Z,7.40
2022-11-23T23:03:56.743Z,7.30
2022-11-23T23:06:25.839Z,7.30
2022-11-23T23:08:55.853Z,7.30
2022-11-23T23:11:23.064Z,7.40
2022-11-23T23:13:49.938Z,7.40
2022-11-23T23:16:17.024Z,7.40
2022-11-23T23:18:44.429Z,7.50
2022-11-23T23:21:19.578Z,7.50
2022-11-23T23:23:48.738Z,7.50
2022-11-23T23:26:18.703Z,7.50
2022-11-23T23:28:46.139Z,7.50
2022-11-23T23:31:16.451Z,7.50
2022-11-23T23:33:44.653Z,7.50
2022-11-23T23:36:21.082Z,7.50
2022-11-23T23:38:48.191Z,7.50
2022-11-23T23:41:15.112Z,7.40
2022-11-23T23:43:42.774Z,7.50
2022-11-23T23:46:12.885Z,7.50
2022-11-23T23:48:40.856Z,7.60
2022-11-23T23:51:19.741Z,7.60
2022-11-23T23:53:47.549Z,7.60
2022-11-23T23:56:17.045Z,7.60
2022-11-23T23:58:44.624Z,7.60
